sensor_id;sensor_type;location;lat;lon;timestamp;P1;P2;P0
70691;PMS5003;58267;51.156;17.044;2022-11-20T00:02:03;155;144;
70691;PMS5003;58267;51.156;17.044;2022-11-20T00:04:29;143;129;
70691;PMS5003;58267;51.156;17.044;2022-11-20T00:06:53;140;117;
70691;PMS5003;58267;51.156;17.044;2022-11-20T00:09:18;136;118;
70691;PMS5003;58267;51.156;17.044;2022-11-20T00:11:43;144;130;
70691;PMS5003;58267;51.156;17.044;2022-11-20T00:14:09;139;119;
70691;PMS5003;58267;51.156;17.044;2022-11-20T00:16:34;153;127;
70691;PMS5003;58267;51.156;17.044;2022-11-20T00:19:01;135;121;
70691;PMS5003;58267;51.156;17.044;2022-11-20T00:21:27;147;116;
70691;PMS5003;58267;51.156;17.044;2022-11-20T00:23:51;124;113;
70691;PMS5003;58267;51.156;17.044;2022-11-20T00:26:16;129;116;
70691;PMS5003;58267;51.156;17.044;2022-11-20T00:28:42;144;124;
70691;PMS5003;58267;51.156;17.044;2022-11-20T00:31:07;137;120;
70691;PMS5003;58267;51.156;17.044;2022-11-20T00:33:32;136;122;
70691;PMS5003;58267;51.156;17.044;2022-11-20T00:35:59;136;116;
70691;PMS5003;58267;51.156;17.044;2022-11-20T00:38:23;129;115;
70691;PMS5003;58267;51.156;17.044;2022-11-20T00:43:16;99;93;
70691;PMS5003;58267;51.156;17.044;2022-11-20T00:45:47;135;117;
70691;PMS5003;58267;51.156;17.044;2022-11-20T00:48:08;134;116;
70691;PMS5003;58267;51.156;17.044;2022-11-20T00:50:33;134;116;
70691;PMS5003;58267;51.156;17.044;2022-11-20T00:52:58;121;109;
70691;PMS5003;58267;51.156;17.044;2022-11-20T00:55:24;129;114;
70691;PMS5003;58267;51.156;17.044;2022-11-20T00:57:50;129;111;
70691;PMS5003;58267;51.156;17.044;2022-11-20T01:00:16;135;121;
70691;PMS5003;58267;51.156;17.044;2022-11-20T01:02:41;129;113;
70691;PMS5003;58267;51.156;17.044;2022-11-20T01:05:06;119;107;
70691;PMS5003;58267;51.156;17.044;2022-11-20T01:07:32;122;111;
70691;PMS5003;58267;51.156;17.044;2022-11-20T01:09:57;112;99;
70691;PMS5003;58267;51.156;17.044;2022-11-20T01:12:22;116;102;
70691;PMS5003;58267;51.156;17.044;2022-11-20T01:14:48;124;104;
70691;PMS5003;58267;51.156;17.044;2022-11-20T01:17:14;115;104;
70691;PMS5003;58267;51.156;17.044;2022-11-20T01:19:39;127;108;
70691;PMS5003;58267;51.156;17.044;2022-11-20T01:22:05;121;111;
70691;PMS5003;58267;51.156;17.044;2022-11-20T01:24:30;124;110;
70691;PMS5003;58267;51.156;17.044;2022-11-20T01:26:55;121;110;
70691;PMS5003;58267;51.156;17.044;2022-11-20T01:29:22;102;98;
70691;PMS5003;58267;51.156;17.044;2022-11-20T01:31:46;121;104;
70691;PMS5003;58267;51.156;17.044;2022-11-20T01:34:13;123;107;
70691;PMS5003;58267;51.156;17.044;2022-11-20T01:36:42;115;102;
70691;PMS5003;58267;51.156;17.044;2022-11-20T01:39:03;117;103;
70691;PMS5003;58267;51.156;17.044;2022-11-20T01:41:29;108;98;
70691;PMS5003;58267;51.156;17.044;2022-11-20T01:43:52;110;99;
70691;PMS5003;58267;51.156;17.044;2022-11-20T01:46:18;115;105;
70691;PMS5003;58267;51.156;17.044;2022-11-20T01:48:47;123;108;
70691;PMS5003;58267;51.156;17.044;2022-11-20T01:51:13;116;96;
70691;PMS5003;58267;51.156;17.044;2022-11-20T01:53:35;114;103;
70691;PMS5003;58267;51.156;17.044;2022-11-20T01:56:01;114;101;
70691;PMS5003;58267;51.156;17.044;2022-11-20T01:58:27;108;98;
70691;PMS5003;58267;51.156;17.044;2022-11-20T02:00:51;117;105;
70691;PMS5003;58267;51.156;17.044;2022-11-20T02:03:16;108;99;
70691;PMS5003;58267;51.156;17.044;2022-11-20T02:05:43;114;101;
70691;PMS5003;58267;51.156;17.044;2022-11-20T02:08:07;110;102;
70691;PMS5003;58267;51.156;17.044;2022-11-20T02:10:32;116;97;
70691;PMS5003;58267;51.156;17.044;2022-11-20T02:12:58;101;92;
70691;PMS5003;58267;51.156;17.044;2022-11-20T02:15:24;100;95;
70691;PMS5003;58267;51.156;17.044;2022-11-20T02:17:49;100;85;
70691;PMS5003;58267;51.156;17.044;2022-11-20T02:20:15;106;93;
70691;PMS5003;58267;51.156;17.044;2022-11-20T02:22:41;112;96;
70691;PMS5003;58267;51.156;17.044;2022-11-20T02:25:06;107;95;
70691;PMS5003;58267;51.156;17.044;2022-11-20T02:27:32;105;93;
70691;PMS5003;58267;51.156;17.044;2022-11-20T02:29:59;114;101;
70691;PMS5003;58267;51.156;17.044;2022-11-20T02:32:25;102;94;
70691;PMS5003;58267;51.156;17.044;2022-11-20T02:34:48;105;102;
70691;PMS5003;58267;51.156;17.044;2022-11-20T02:37:14;115;103;
70691;PMS5003;58267;51.156;17.044;2022-11-20T02:39:39;106;100;
70691;PMS5003;58267;51.156;17.044;2022-11-20T02:42:05;112;96;
70691;PMS5003;58267;51.156;17.044;2022-11-20T02:44:31;114;101;
70691;PMS5003;58267;51.156;17.044;2022-11-20T02:46:57;114;106;
70691;PMS5003;58267;51.156;17.044;2022-11-20T02:49:22;120;101;
70691;PMS5003;58267;51.156;17.044;2022-11-20T02:51:48;118;105;
70691;PMS5003;58267;51.156;17.044;2022-11-20T02:54:14;115;102;
70691;PMS5003;58267;51.156;17.044;2022-11-20T02:56:40;108;98;
70691;PMS5003;58267;51.156;17.044;2022-11-20T02:59:06;117;101;
70691;PMS5003;58267;51.156;17.044;2022-11-20T03:01:31;115;96;
70691;PMS5003;58267;51.156;17.044;2022-11-20T03:03:56;126;117;
70691;PMS5003;58267;51.156;17.044;2022-11-20T03:06:21;119;106;
70691;PMS5003;58267;51.156;17.044;2022-11-20T03:08:47;130;110;
70691;PMS5003;58267;51.156;17.044;2022-11-20T03:11:12;122;109;
70691;PMS5003;58267;51.156;17.044;2022-11-20T03:13:38;134;113;
70691;PMS5003;58267;51.156;17.044;2022-11-20T03:16:06;140;118;
70691;PMS5003;58267;51.156;17.044;2022-11-20T03:18:29;133;117;
70691;PMS5003;58267;51.156;17.044;2022-11-20T03:20:56;138;116;
70691;PMS5003;58267;51.156;17.044;2022-11-20T03:23:19;133;117;
70691;PMS5003;58267;51.156;17.044;2022-11-20T03:25:45;143;124;
70691;PMS5003;58267;51.156;17.044;2022-11-20T03:28:10;129;116;
70691;PMS5003;58267;51.156;17.044;2022-11-20T03:30:36;131;119;
70691;PMS5003;58267;51.156;17.044;2022-11-20T03:33:02;129;108;
70691;PMS5003;58267;51.156;17.044;2022-11-20T03:35:27;137;122;
70691;PMS5003;58267;51.156;17.044;2022-11-20T03:37:52;134;117;
70691;PMS5003;58267;51.156;17.044;2022-11-20T03:40:17;132;118;
70691;PMS5003;58267;51.156;17.044;2022-11-20T03:42:43;123;111;
70691;PMS5003;58267;51.156;17.044;2022-11-20T03:45:09;138;119;
70691;PMS5003;58267;51.156;17.044;2022-11-20T03:47:34;152;124;
70691;PMS5003;58267;51.156;17.044;2022-11-20T03:50:00;141;123;
70691;PMS5003;58267;51.156;17.044;2022-11-20T03:52:26;157;133;
70691;PMS5003;58267;51.156;17.044;2022-11-20T03:54:51;147;131;
70691;PMS5003;58267;51.156;17.044;2022-11-20T03:57:16;145;124;
70691;PMS5003;58267;51.156;17.044;2022-11-20T03:59:42;146;135;
70691;PMS5003;58267;51.156;17.044;2022-11-20T04:02:07;146;126;
70691;PMS5003;58267;51.156;17.044;2022-11-20T04:04:32;132;111;
70691;PMS5003;58267;51.156;17.044;2022-11-20T04:06:57;139;123;
70691;PMS5003;58267;51.156;17.044;2022-11-20T04:09:23;142;123;
70691;PMS5003;58267;51.156;17.044;2022-11-20T04:11:48;127;114;
70691;PMS5003;58267;51.156;17.044;2022-11-20T04:14:14;138;121;
70691;PMS5003;58267;51.156;17.044;2022-11-20T04:16:39;129;115;
70691;PMS5003;58267;51.156;17.044;2022-11-20T04:19:09;135;114;
70691;PMS5003;58267;51.156;17.044;2022-11-20T04:21:29;119;109;
70691;PMS5003;58267;51.156;17.044;2022-11-20T04:23:56;136;116;
70691;PMS5003;58267;51.156;17.044;2022-11-20T04:26:21;131;116;
70691;PMS5003;58267;51.156;17.044;2022-11-20T04:28:46;117;106;
70691;PMS5003;58267;51.156;17.044;2022-11-20T04:31:12;126;115;
70691;PMS5003;58267;51.156;17.044;2022-11-20T04:33:38;121;113;
70691;PMS5003;58267;51.156;17.044;2022-11-20T04:36:03;119;108;
70691;PMS5003;58267;51.156;17.044;2022-11-20T04:38:28;118;105;
70691;PMS5003;58267;51.156;17.044;2022-11-20T04:40:55;115;105;
70691;PMS5003;58267;51.156;17.044;2022-11-20T04:43:19;119;110;
70691;PMS5003;58267;51.156;17.044;2022-11-20T04:48:09;121;106;
70691;PMS5003;58267;51.156;17.044;2022-11-20T04:50:36;127;115;
70691;PMS5003;58267;51.156;17.044;2022-11-20T04:53:00;122;107;
70691;PMS5003;58267;51.156;17.044;2022-11-20T04:55:25;129;109;
70691;PMS5003;58267;51.156;17.044;2022-11-20T04:57:51;118;106;
70691;PMS5003;58267;51.156;17.044;2022-11-20T05:00:16;122;109;
70691;PMS5003;58267;51.156;17.044;2022-11-20T05:02:42;123;111;
70691;PMS5003;58267;51.156;17.044;2022-11-20T05:05:08;121;110;
70691;PMS5003;58267;51.156;17.044;2022-11-20T05:07:34;133;112;
70691;PMS5003;58267;51.156;17.044;2022-11-20T05:09:59;131;116;
70691;PMS5003;58267;51.156;17.044;2022-11-20T05:12:24;120;110;
70691;PMS5003;58267;51.156;17.044;2022-11-20T05:14:50;124;107;
70691;PMS5003;58267;51.156;17.044;2022-11-20T05:17:15;130;120;
70691;PMS5003;58267;51.156;17.044;2022-11-20T05:19:41;131;112;
70691;PMS5003;58267;51.156;17.044;2022-11-20T05:22:07;127;115;
70691;PMS5003;58267;51.156;17.044;2022-11-20T05:24:32;128;118;
70691;PMS5003;58267;51.156;17.044;2022-11-20T05:26:58;134;117;
70691;PMS5003;58267;51.156;17.044;2022-11-20T05:29:24;120;106;
70691;PMS5003;58267;51.156;17.044;2022-11-20T05:31:49;127;114;
70691;PMS5003;58267;51.156;17.044;2022-11-20T05:34:14;122;110;
70691;PMS5003;58267;51.156;17.044;2022-11-20T05:36:44;82;77;
70691;PMS5003;58267;51.156;17.044;2022-11-20T05:39:09;131;123;
70691;PMS5003;58267;51.156;17.044;2022-11-20T05:41:35;121;111;
70691;PMS5003;58267;51.156;17.044;2022-11-20T05:44:01;148;124;
70691;PMS5003;58267;51.156;17.044;2022-11-20T05:46:27;122;114;
70691;PMS5003;58267;51.156;17.044;2022-11-20T05:48:52;145;130;
70691;PMS5003;58267;51.156;17.044;2022-11-20T05:51:18;132;123;
70691;PMS5003;58267;51.156;17.044;2022-11-20T05:53:43;137;123;
70691;PMS5003;58267;51.156;17.044;2022-11-20T05:56:09;141;124;
70691;PMS5003;58267;51.156;17.044;2022-11-20T05:58:34;140;121;
70691;PMS5003;58267;51.156;17.044;2022-11-20T06:01:04;127;119;
70691;PMS5003;58267;51.156;17.044;2022-11-20T06:03:25;82;76;
70691;PMS5003;58267;51.156;17.044;2022-11-20T06:05:50;136;117;
70691;PMS5003;58267;51.156;17.044;2022-11-20T06:08:16;136;115;
70691;PMS5003;58267;51.156;17.044;2022-11-20T06:10:41;140;121;
70691;PMS5003;58267;51.156;17.044;2022-11-20T06:13:09;96;90;
70691;PMS5003;58267;51.156;17.044;2022-11-20T06:15:35;134;117;
70691;PMS5003;58267;51.156;17.044;2022-11-20T06:18:02;139;121;
70691;PMS5003;58267;51.156;17.044;2022-11-20T06:20:27;134;121;
70691;PMS5003;58267;51.156;17.044;2022-11-20T06:22:52;125;111;
70691;PMS5003;58267;51.156;17.044;2022-11-20T06:25:17;137;121;
70691;PMS5003;58267;51.156;17.044;2022-11-20T06:27:43;149;128;
70691;PMS5003;58267;51.156;17.044;2022-11-20T06:30:08;139;125;
70691;PMS5003;58267;51.156;17.044;2022-11-20T06:32:33;125;115;
70691;PMS5003;58267;51.156;17.044;2022-11-20T06:34:58;140;122;
70691;PMS5003;58267;51.156;17.044;2022-11-20T06:37:24;146;119;
70691;PMS5003;58267;51.156;17.044;2022-11-20T06:39:49;137;115;
70691;PMS5003;58267;51.156;17.044;2022-11-20T06:42:15;151;120;
70691;PMS5003;58267;51.156;17.044;2022-11-20T06:44:41;129;118;
70691;PMS5003;58267;51.156;17.044;2022-11-20T06:47:06;145;121;
70691;PMS5003;58267;51.156;17.044;2022-11-20T06:49:33;141;122;
70691;PMS5003;58267;51.156;17.044;2022-11-20T06:51:58;139;123;
70691;PMS5003;58267;51.156;17.044;2022-11-20T06:54:25;132;117;
70691;PMS5003;58267;51.156;17.044;2022-11-20T06:56:51;140;128;
70691;PMS5003;58267;51.156;17.044;2022-11-20T06:59:16;128;115;
70691;PMS5003;58267;51.156;17.044;2022-11-20T07:01:42;131;117;
70691;PMS5003;58267;51.156;17.044;2022-11-20T07:04:07;133;113;
70691;PMS5003;58267;51.156;17.044;2022-11-20T07:06:33;123;113;
70691;PMS5003;58267;51.156;17.044;2022-11-20T07:08:58;141;127;
70691;PMS5003;58267;51.156;17.044;2022-11-20T07:11:24;140;127;
70691;PMS5003;58267;51.156;17.044;2022-11-20T07:13:50;133;120;
70691;PMS5003;58267;51.156;17.044;2022-11-20T07:16:15;135;119;
70691;PMS5003;58267;51.156;17.044;2022-11-20T07:18:40;147;123;
70691;PMS5003;58267;51.156;17.044;2022-11-20T07:21:06;134;119;
70691;PMS5003;58267;51.156;17.044;2022-11-20T07:23:31;152;132;
70691;PMS5003;58267;51.156;17.044;2022-11-20T07:25:56;153;135;
70691;PMS5003;58267;51.156;17.044;2022-11-20T07:28:23;155;128;
70691;PMS5003;58267;51.156;17.044;2022-11-20T07:30:49;149;137;
70691;PMS5003;58267;51.156;17.044;2022-11-20T07:33:13;165;131;
70691;PMS5003;58267;51.156;17.044;2022-11-20T07:35:39;144;132;
70691;PMS5003;58267;51.156;17.044;2022-11-20T07:38:05;151;133;
70691;PMS5003;58267;51.156;17.044;2022-11-20T07:40:30;155;132;
70691;PMS5003;58267;51.156;17.044;2022-11-20T07:42:56;142;126;
70691;PMS5003;58267;51.156;17.044;2022-11-20T07:45:22;135;120;
70691;PMS5003;58267;51.156;17.044;2022-11-20T07:47:47;139;122;
70691;PMS5003;58267;51.156;17.044;2022-11-20T07:50:12;147;129;
70691;PMS5003;58267;51.156;17.044;2022-11-20T07:52:38;140;121;
70691;PMS5003;58267;51.156;17.044;2022-11-20T07:55:03;140;124;
70691;PMS5003;58267;51.156;17.044;2022-11-20T07:57:28;132;121;
70691;PMS5003;58267;51.156;17.044;2022-11-20T07:59:53;126;114;
70691;PMS5003;58267;51.156;17.044;2022-11-20T08:02:18;135;119;
70691;PMS5003;58267;51.156;17.044;2022-11-20T08:04:44;134;125;
70691;PMS5003;58267;51.156;17.044;2022-11-20T08:07:09;136;118;
70691;PMS5003;58267;51.156;17.044;2022-11-20T08:09:34;124;106;
70691;PMS5003;58267;51.156;17.044;2022-11-20T08:11:59;123;117;
70691;PMS5003;58267;51.156;17.044;2022-11-20T08:14:25;124;109;
70691;PMS5003;58267;51.156;17.044;2022-11-20T08:16:50;120;111;
70691;PMS5003;58267;51.156;17.044;2022-11-20T08:19:16;121;107;
70691;PMS5003;58267;51.156;17.044;2022-11-20T08:21:41;121;112;
70691;PMS5003;58267;51.156;17.044;2022-11-20T08:24:07;110;104;
70691;PMS5003;58267;51.156;17.044;2022-11-20T08:26:32;115;105;
70691;PMS5003;58267;51.156;17.044;2022-11-20T08:28:57;120;105;
70691;PMS5003;58267;51.156;17.044;2022-11-20T08:31:22;108;96;
70691;PMS5003;58267;51.156;17.044;2022-11-20T08:33:48;115;101;
70691;PMS5003;58267;51.156;17.044;2022-11-20T08:36:14;118;103;
70691;PMS5003;58267;51.156;17.044;2022-11-20T08:38:39;104;90;
70691;PMS5003;58267;51.156;17.044;2022-11-20T08:41:04;116;95;
70691;PMS5003;58267;51.156;17.044;2022-11-20T08:43:30;97;87;
70691;PMS5003;58267;51.156;17.044;2022-11-20T08:45:56;101;93;
70691;PMS5003;58267;51.156;17.044;2022-11-20T08:48:21;100;88;
70691;PMS5003;58267;51.156;17.044;2022-11-20T08:50:47;90;78;
70691;PMS5003;58267;51.156;17.044;2022-11-20T08:53:13;93;87;
70691;PMS5003;58267;51.156;17.044;2022-11-20T08:55:38;90;82;
70691;PMS5003;58267;51.156;17.044;2022-11-20T08:58:03;91;83;
70691;PMS5003;58267;51.156;17.044;2022-11-20T09:00:29;89;80;
70691;PMS5003;58267;51.156;17.044;2022-11-20T09:02:54;89;80;
70691;PMS5003;58267;51.156;17.044;2022-11-20T09:05:19;102;84;
70691;PMS5003;58267;51.156;17.044;2022-11-20T09:07:44;84;78;
70691;PMS5003;58267;51.156;17.044;2022-11-20T09:10:10;89;84;
70691;PMS5003;58267;51.156;17.044;2022-11-20T09:12:35;89;76;
70691;PMS5003;58267;51.156;17.044;2022-11-20T09:15:00;87;77;
70691;PMS5003;58267;51.156;17.044;2022-11-20T09:17:26;85;72;
70691;PMS5003;58267;51.156;17.044;2022-11-20T09:19:52;88;76;
70691;PMS5003;58267;51.156;17.044;2022-11-20T09:22:17;79;70;
70691;PMS5003;58267;51.156;17.044;2022-11-20T09:24:43;92;82;
70691;PMS5003;58267;51.156;17.044;2022-11-20T09:27:09;89;75;
70691;PMS5003;58267;51.156;17.044;2022-11-20T09:29:34;84;72;
70691;PMS5003;58267;51.156;17.044;2022-11-20T09:31:59;76;69;
70691;PMS5003;58267;51.156;17.044;2022-11-20T09:34:25;81;69;
70691;PMS5003;58267;51.156;17.044;2022-11-20T09:36:51;71;66;
70691;PMS5003;58267;51.156;17.044;2022-11-20T09:39:16;80;70;
70691;PMS5003;58267;51.156;17.044;2022-11-20T09:41:47;73;67;
70691;PMS5003;58267;51.156;17.044;2022-11-20T09:44:10;69;62;
70691;PMS5003;58267;51.156;17.044;2022-11-20T09:46:36;85;70;
70691;PMS5003;58267;51.156;17.044;2022-11-20T09:49:03;71;68;
70691;PMS5003;58267;51.156;17.044;2022-11-20T09:51:28;79;71;
70691;PMS5003;58267;51.156;17.044;2022-11-20T09:53:52;83;73;
70691;PMS5003;58267;51.156;17.044;2022-11-20T09:56:14;74;66;
70691;PMS5003;58267;51.156;17.044;2022-11-20T09:58:41;76;69;
70691;PMS5003;58267;51.156;17.044;2022-11-20T10:01:08;77;67;
70691;PMS5003;58267;51.156;17.044;2022-11-20T10:03:37;70;65;
70691;PMS5003;58267;51.156;17.044;2022-11-20T10:05:57;77;69;
70691;PMS5003;58267;51.156;17.044;2022-11-20T10:08:24;80;66;
70691;PMS5003;58267;51.156;17.044;2022-11-20T10:10:49;80;72;
70691;PMS5003;58267;51.156;17.044;2022-11-20T10:13:18;78;71;
70691;PMS5003;58267;51.156;17.044;2022-11-20T10:15:41;80;67;
70691;PMS5003;58267;51.156;17.044;2022-11-20T10:18:09;81;75;
70691;PMS5003;58267;51.156;17.044;2022-11-20T10:20:34;82;78;
70691;PMS5003;58267;51.156;17.044;2022-11-20T10:23:02;90;77;
70691;PMS5003;58267;51.156;17.044;2022-11-20T10:25:23;81;75;
70691;PMS5003;58267;51.156;17.044;2022-11-20T10:27:52;85;79;
70691;PMS5003;58267;51.156;17.044;2022-11-20T10:30:15;76;70;
70691;PMS5003;58267;51.156;17.044;2022-11-20T10:32:40;74;70;
70691;PMS5003;58267;51.156;17.044;2022-11-20T10:35:07;90;82;
70691;PMS5003;58267;51.156;17.044;2022-11-20T10:37:31;76;72;
70691;PMS5003;58267;51.156;17.044;2022-11-20T10:39:58;85;77;
70691;PMS5003;58267;51.156;17.044;2022-11-20T10:42:24;73;71;
70691;PMS5003;58267;51.156;17.044;2022-11-20T10:44:49;76;70;
70691;PMS5003;58267;51.156;17.044;2022-11-20T10:47:14;73;68;
70691;PMS5003;58267;51.156;17.044;2022-11-20T10:49:38;62;60;
70691;PMS5003;58267;51.156;17.044;2022-11-20T10:52:05;61;58;
70691;PMS5003;58267;51.156;17.044;2022-11-20T10:54:31;62;56;
70691;PMS5003;58267;51.156;17.044;2022-11-20T10:56:56;59;55;
70691;PMS5003;58267;51.156;17.044;2022-11-20T11:01:46;67;64;
70691;PMS5003;58267;51.156;17.044;2022-11-20T11:04:16;72;66;
70691;PMS5003;58267;51.156;17.044;2022-11-20T11:06:37;70;66;
70691;PMS5003;58267;51.156;17.044;2022-11-20T11:09:04;72;68;
70691;PMS5003;58267;51.156;17.044;2022-11-20T11:11:28;65;61;
70691;PMS5003;58267;51.156;17.044;2022-11-20T11:13:53;71;59;
70691;PMS5003;58267;51.156;17.044;2022-11-20T11:16:20;66;62;
70691;PMS5003;58267;51.156;17.044;2022-11-20T11:18:44;74;70;
70691;PMS5003;58267;51.156;17.044;2022-11-20T11:21:09;85;72;
70691;PMS5003;58267;51.156;17.044;2022-11-20T11:23:35;72;64;
70691;PMS5003;58267;51.156;17.044;2022-11-20T11:26:00;69;64;
70691;PMS5003;58267;51.156;17.044;2022-11-20T11:28:26;74;66;
70691;PMS5003;58267;51.156;17.044;2022-11-20T11:30:53;76;66;
70691;PMS5003;58267;51.156;17.044;2022-11-20T11:33:18;66;63;
70691;PMS5003;58267;51.156;17.044;2022-11-20T11:35:45;47;43;
70691;PMS5003;58267;51.156;17.044;2022-11-20T11:38:12;57;50;
70691;PMS5003;58267;51.156;17.044;2022-11-20T11:40:35;60;57;
70691;PMS5003;58267;51.156;17.044;2022-11-20T11:43:04;55;52;
70691;PMS5003;58267;51.156;17.044;2022-11-20T11:45:29;62;58;
70691;PMS5003;58267;51.156;17.044;2022-11-20T11:47:55;67;63;
70691;PMS5003;58267;51.156;17.044;2022-11-20T11:50:20;66;59;
70691;PMS5003;58267;51.156;17.044;2022-11-20T11:52:48;65;59;
70691;PMS5003;58267;51.156;17.044;2022-11-20T11:55:12;57;54;
70691;PMS5003;58267;51.156;17.044;2022-11-20T11:57:37;57;54;
70691;PMS5003;58267;51.156;17.044;2022-11-20T12:00:03;52;48;
70691;PMS5003;58267;51.156;17.044;2022-11-20T12:02:31;52;46;
70691;PMS5003;58267;51.156;17.044;2022-11-20T12:04:54;54;51;
70691;PMS5003;58267;51.156;17.044;2022-11-20T12:07:19;50;47;
70691;PMS5003;58267;51.156;17.044;2022-11-20T12:09:46;54;51;
70691;PMS5003;58267;51.156;17.044;2022-11-20T12:12:10;53;49;
70691;PMS5003;58267;51.156;17.044;2022-11-20T12:14:35;50;47;
70691;PMS5003;58267;51.156;17.044;2022-11-20T12:17:00;48;41;
70691;PMS5003;58267;51.156;17.044;2022-11-20T12:19:26;50;47;
70691;PMS5003;58267;51.156;17.044;2022-11-20T12:21:54;51;46;
70691;PMS5003;58267;51.156;17.044;2022-11-20T12:24:24;46;42;
70691;PMS5003;58267;51.156;17.044;2022-11-20T12:26:45;48;41;
70691;PMS5003;58267;51.156;17.044;2022-11-20T12:29:09;42;40;
70691;PMS5003;58267;51.156;17.044;2022-11-20T12:31:40;44;44;
70691;PMS5003;58267;51.156;17.044;2022-11-20T12:34:02;52;47;
70691;PMS5003;58267;51.156;17.044;2022-11-20T12:36:27;50;43;
70691;PMS5003;58267;51.156;17.044;2022-11-20T12:38:53;52;45;
70691;PMS5003;58267;51.156;17.044;2022-11-20T12:41:18;46;45;
70691;PMS5003;58267;51.156;17.044;2022-11-20T12:43:42;46;45;
70691;PMS5003;58267;51.156;17.044;2022-11-20T12:51:05;27;27;
70691;PMS5003;58267;51.156;17.044;2022-11-20T12:53:26;52;46;
70691;PMS5003;58267;51.156;17.044;2022-11-20T12:55:52;45;40;
70691;PMS5003;58267;51.156;17.044;2022-11-20T12:58:17;37;36;
70691;PMS5003;58267;51.156;17.044;2022-11-20T13:00:43;50;42;
70691;PMS5003;58267;51.156;17.044;2022-11-20T13:05:34;48;45;
70691;PMS5003;58267;51.156;17.044;2022-11-20T13:07:58;40;39;
70691;PMS5003;58267;51.156;17.044;2022-11-20T13:10:25;53;43;
70691;PMS5003;58267;51.156;17.044;2022-11-20T13:12:50;55;48;
70691;PMS5003;58267;51.156;17.044;2022-11-20T13:15:29;45;43;
70691;PMS5003;58267;51.156;17.044;2022-11-20T13:17:41;43;40;
70691;PMS5003;58267;51.156;17.044;2022-11-20T13:20:06;41;40;
70691;PMS5003;58267;51.156;17.044;2022-11-20T13:24:55;52;47;
70691;PMS5003;58267;51.156;17.044;2022-11-20T13:27:21;49;43;
70691;PMS5003;58267;51.156;17.044;2022-11-20T13:29:47;49;47;
70691;PMS5003;58267;51.156;17.044;2022-11-20T13:32:13;49;46;
70691;PMS5003;58267;51.156;17.044;2022-11-20T13:34:38;44;40;
70691;PMS5003;58267;51.156;17.044;2022-11-20T13:37:03;45;44;
70691;PMS5003;58267;51.156;17.044;2022-11-20T13:39:30;48;42;
70691;PMS5003;58267;51.156;17.044;2022-11-20T13:41:55;48;44;
70691;PMS5003;58267;51.156;17.044;2022-11-20T13:44:23;47;45;
70691;PMS5003;58267;51.156;17.044;2022-11-20T13:46:46;44;40;
70691;PMS5003;58267;51.156;17.044;2022-11-20T13:49:14;51;47;
70691;PMS5003;58267;51.156;17.044;2022-11-20T13:51:38;53;47;
70691;PMS5003;58267;51.156;17.044;2022-11-20T13:54:05;46;42;
70691;PMS5003;58267;51.156;17.044;2022-11-20T13:56:29;47;43;
70691;PMS5003;58267;51.156;17.044;2022-11-20T13:58:54;47;45;
70691;PMS5003;58267;51.156;17.044;2022-11-20T14:01:19;51;47;
70691;PMS5003;58267;51.156;17.044;2022-11-20T14:03:42;45;41;
70691;PMS5003;58267;51.156;17.044;2022-11-20T14:06:11;46;44;
70691;PMS5003;58267;51.156;17.044;2022-11-20T14:08:35;48;45;
70691;PMS5003;58267;51.156;17.044;2022-11-20T14:13:23;48;42;
70691;PMS5003;58267;51.156;17.044;2022-11-20T14:15:48;47;45;
70691;PMS5003;58267;51.156;17.044;2022-11-20T14:18:14;46;41;
70691;PMS5003;58267;51.156;17.044;2022-11-20T14:20:39;51;47;
70691;PMS5003;58267;51.156;17.044;2022-11-20T14:23:04;46;43;
70691;PMS5003;58267;51.156;17.044;2022-11-20T14:25:30;50;46;
70691;PMS5003;58267;51.156;17.044;2022-11-20T14:27:55;50;48;
70691;PMS5003;58267;51.156;17.044;2022-11-20T14:30:21;48;46;
70691;PMS5003;58267;51.156;17.044;2022-11-20T14:32:45;50;47;
70691;PMS5003;58267;51.156;17.044;2022-11-20T14:35:13;53;49;
70691;PMS5003;58267;51.156;17.044;2022-11-20T14:37:36;50;48;
70691;PMS5003;58267;51.156;17.044;2022-11-20T14:40:01;58;54;
70691;PMS5003;58267;51.156;17.044;2022-11-20T14:42:27;55;49;
70691;PMS5003;58267;51.156;17.044;2022-11-20T14:44:52;67;63;
70691;PMS5003;58267;51.156;17.044;2022-11-20T14:47:18;75;64;
70691;PMS5003;58267;51.156;17.044;2022-11-20T14:49:42;66;61;
70691;PMS5003;58267;51.156;17.044;2022-11-20T14:52:12;69;64;
70691;PMS5003;58267;51.156;17.044;2022-11-20T14:54:33;66;61;
70691;PMS5003;58267;51.156;17.044;2022-11-20T14:56:59;87;73;
70691;PMS5003;58267;51.156;17.044;2022-11-20T14:59:24;87;84;
70691;PMS5003;58267;51.156;17.044;2022-11-20T15:01:53;73;67;
70691;PMS5003;58267;51.156;17.044;2022-11-20T15:04:14;69;65;
70691;PMS5003;58267;51.156;17.044;2022-11-20T15:09:12;63;60;
70691;PMS5003;58267;51.156;17.044;2022-11-20T15:11:32;72;66;
70691;PMS5003;58267;51.156;17.044;2022-11-20T15:13:56;67;60;
70691;PMS5003;58267;51.156;17.044;2022-11-20T15:16:22;67;55;
70691;PMS5003;58267;51.156;17.044;2022-11-20T15:18:47;62;59;
70691;PMS5003;58267;51.156;17.044;2022-11-20T15:21:13;67;61;
70691;PMS5003;58267;51.156;17.044;2022-11-20T15:23:39;83;73;
70691;PMS5003;58267;51.156;17.044;2022-11-20T15:26:04;89;78;
70691;PMS5003;58267;51.156;17.044;2022-11-20T15:28:30;89;80;
70691;PMS5003;58267;51.156;17.044;2022-11-20T15:30:55;89;81;
70691;PMS5003;58267;51.156;17.044;2022-11-20T15:33:20;88;80;
70691;PMS5003;58267;51.156;17.044;2022-11-20T15:35:46;82;71;
70691;PMS5003;58267;51.156;17.044;2022-11-20T15:38:12;69;64;
70691;PMS5003;58267;51.156;17.044;2022-11-20T15:40:37;77;70;
70691;PMS5003;58267;51.156;17.044;2022-11-20T15:43:03;85;73;
70691;PMS5003;58267;51.156;17.044;2022-11-20T15:45:29;67;65;
70691;PMS5003;58267;51.156;17.044;2022-11-20T15:47:54;76;66;
70691;PMS5003;58267;51.156;17.044;2022-11-20T15:50:19;82;71;
70691;PMS5003;58267;51.156;17.044;2022-11-20T15:52:44;58;52;
70691;PMS5003;58267;51.156;17.044;2022-11-20T15:55:09;67;60;